Airport View

Enter ICAO identifier to see the current METAR for that AWOS.

KFNL for example

KGTF 030553Z 10005KT 10SM CLR 15/04 A2968

3 Sep 2014 06:55

Phone: 406-452-9844

Other Area AWOS: KGFA - K79S - KHLN - KCTB

TAF KGTF 030520Z 0306/0406 VRB06KT P6SM SCT100 BKN200 FM030800 25011KT P6SM SCT080 BKN150 FM031300 28012G20KT P6SM BKN080 FM032000 30015KT P6SM VCSH BKN050 FM040200 33015G22KT P6SM VCSH BKN035